Time;durP1;ratioP1;P1;durP2;ratioP2;P2;SDS_P1;SDS_P2;PMS_P1;PMS_P2;Temp;Humidity;BMP_temperature;BMP_pressure;BME280_temperature;BME280_humidity;BME280_pressure;Samples;Min_cycle;Max_cycle;Signal;HPM_P1;HPM_P2
2022/02/20 00:01:47;;;;;;;1.35;0.70;;;;;;;;;;5051278;28;20028;-45
2022/02/20 00:04:14;;;;;;;1.70;1.05;;;;;;;;;;5051813;28;20071;-45
2022/02/20 00:06:40;;;;;;;1.25;0.70;;;;;;;;;;5062042;28;20461;-45
2022/02/20 00:09:06;;;;;;;1.02;0.63;;;;;;;;;;5071762;28;20025;-45
2022/02/20 00:11:32;;;;;;;2.50;0.75;;;;;;;;;;5070699;28;20423;-47
2022/02/20 00:13:58;;;;;;;1.75;0.82;;;;;;;;;;5072059;28;20051;-45
2022/02/20 00:16:24;;;;;;;2.00;0.80;;;;;;;;;;5071782;28;20032;-46
2022/02/20 00:18:50;;;;;;;3.45;0.75;;;;;;;;;;5071062;28;20044;-45
2022/02/20 00:21:17;;;;;;;2.47;0.85;;;;;;;;;;5071734;28;20027;-45
2022/02/20 00:23:43;;;;;;;1.90;1.05;;;;;;;;;;5070992;28;20017;-45
2022/02/20 00:26:09;;;;;;;4.63;1.05;;;;;;;;;;5071746;28;20025;-45
2022/02/20 00:28:35;;;;;;;2.10;0.75;;;;;;;;;;5070695;28;20115;-45
2022/02/20 00:31:01;;;;;;;2.15;0.80;;;;;;;;;;5071597;28;20045;-45
2022/02/20 00:33:27;;;;;;;3.70;0.80;;;;;;;;;;5071477;28;20070;-55
2022/02/20 00:35:53;;;;;;;1.83;1.10;;;;;;;;;;5071325;28;20049;-45
2022/02/20 00:38:19;;;;;;;2.53;1.00;;;;;;;;;;5071121;28;20076;-46
2022/02/20 00:40:45;;;;;;;1.90;0.50;;;;;;;;;;5070914;28;20191;-45
2022/02/20 00:43:12;;;;;;;2.22;0.80;;;;;;;;;;5070971;28;20551;-45
2022/02/20 00:45:38;;;;;;;0.93;0.60;;;;;;;;;;5070221;28;20082;-44
2022/02/20 00:48:05;;;;;;;1.98;0.80;;;;;;;;;;5071432;28;20017;-45
2022/02/20 00:50:31;;;;;;;1.42;0.82;;;;;;;;;;5070620;28;20033;-45
2022/02/20 00:52:57;;;;;;;2.58;0.75;;;;;;;;;;5071855;28;20047;-45
2022/02/20 00:55:25;;;;;;;2.80;1.52;;;;;;;;;;5071759;28;20103;-45
2022/02/20 00:57:51;;;;;;;1.48;0.73;;;;;;;;;;5070794;28;20507;-45
2022/02/20 01:00:17;;;;;;;2.13;1.00;;;;;;;;;;5071321;28;20033;-47
2022/02/20 01:02:43;;;;;;;1.15;0.95;;;;;;;;;;5072190;28;20419;-45
2022/02/20 01:05:10;;;;;;;3.53;1.02;;;;;;;;;;5075240;28;20535;-46
2022/02/20 01:07:36;;;;;;;1.38;0.70;;;;;;;;;;5074430;28;20020;-46
2022/02/20 01:10:02;;;;;;;1.05;0.50;;;;;;;;;;5074922;28;20129;-45
2022/02/20 01:12:29;;;;;;;3.35;1.10;;;;;;;;;;5074403;28;20021;-55
2022/02/20 01:14:55;;;;;;;1.10;0.50;;;;;;;;;;5074750;28;20500;-46
2022/02/20 01:17:21;;;;;;;1.10;0.52;;;;;;;;;;5074501;28;20508;-45
2022/02/20 01:19:48;;;;;;;2.58;1.15;;;;;;;;;;5074236;28;20021;-45
2022/02/20 01:22:14;;;;;;;2.47;0.95;;;;;;;;;;5074659;28;20029;-45
2022/02/20 01:24:40;;;;;;;1.88;1.13;;;;;;;;;;5074115;28;20077;-46
2022/02/20 01:27:06;;;;;;;0.52;0.40;;;;;;;;;;5074275;28;20470;-46
2022/02/20 01:29:32;;;;;;;1.98;0.77;;;;;;;;;;5074012;28;20077;-46
2022/02/20 01:31:58;;;;;;;1.48;0.68;;;;;;;;;;5074346;28;20078;-46
2022/02/20 01:34:24;;;;;;;2.40;0.80;;;;;;;;;;5074609;28;20425;-46
2022/02/20 01:36:50;;;;;;;1.42;0.77;;;;;;;;;;5073835;28;20173;-45
2022/02/20 01:39:16;;;;;;;2.88;1.40;;;;;;;;;;5074780;28;20025;-46
2022/02/20 01:41:42;;;;;;;1.38;0.68;;;;;;;;;;5073735;28;20067;-45
2022/02/20 01:44:08;;;;;;;0.95;0.70;;;;;;;;;;5059890;28;20021;-45
2022/02/20 01:46:34;;;;;;;1.13;0.70;;;;;;;;;;5053717;28;20036;-45
2022/02/20 01:49:00;;;;;;;1.65;0.85;;;;;;;;;;5054565;28;20025;-47
2022/02/20 01:51:26;;;;;;;1.63;0.50;;;;;;;;;;5054241;28;20103;-45
2022/02/20 01:53:52;;;;;;;1.23;0.90;;;;;;;;;;5053654;28;20021;-46
2022/02/20 01:56:18;;;;;;;1.05;0.50;;;;;;;;;;5054013;28;20027;-46
2022/02/20 01:58:44;;;;;;;2.20;1.10;;;;;;;;;;5053553;28;20061;-45
2022/02/20 02:01:10;;;;;;;1.00;0.50;;;;;;;;;;5054066;28;20484;-45
2022/02/20 02:03:37;;;;;;;2.30;0.98;;;;;;;;;;5053538;28;20031;-46
2022/02/20 02:06:03;;;;;;;1.13;0.75;;;;;;;;;;5053958;28;20021;-45
2022/02/20 02:08:30;;;;;;;1.77;0.73;;;;;;;;;;5053917;28;20029;-45
2022/02/20 02:10:56;;;;;;;2.50;0.70;;;;;;;;;;5053386;28;20036;-45
2022/02/20 02:13:22;;;;;;;1.63;0.60;;;;;;;;;;5053420;28;20025;-46
2022/02/20 02:15:52;;;;;;;2.67;0.80;;;;;;;;;;5053000;28;20070;-44
2022/02/20 02:18:18;;;;;;;2.17;0.70;;;;;;;;;;5053371;28;20463;-44
2022/02/20 02:20:44;;;;;;;2.55;0.93;;;;;;;;;;5053022;28;20374;-45
2022/02/20 02:23:11;;;;;;;1.90;0.70;;;;;;;;;;5053688;28;20104;-45
2022/02/20 02:25:38;;;;;;;1.75;0.50;;;;;;;;;;5053072;28;20086;-44
2022/02/20 02:28:05;;;;;;;1.88;0.70;;;;;;;;;;5053270;28;20347;-45
2022/02/20 02:30:31;;;;;;;0.95;0.57;;;;;;;;;;5053560;28;20037;-46
2022/02/20 02:32:57;;;;;;;4.25;1.40;;;;;;;;;;5053236;28;20024;-45
2022/02/20 02:35:24;;;;;;;2.17;0.90;;;;;;;;;;5053573;28;20029;-46
2022/02/20 02:37:52;;;;;;;1.63;0.75;;;;;;;;;;5052499;28;20045;-47
2022/02/20 02:40:18;;;;;;;1.55;0.60;;;;;;;;;;5053317;28;20021;-47
2022/02/20 02:42:44;;;;;;;0.98;0.60;;;;;;;;;;5054930;28;20436;-48
2022/02/20 02:45:10;;;;;;;1.73;0.60;;;;;;;;;;5073006;28;20074;-45
2022/02/20 02:47:36;;;;;;;1.30;0.70;;;;;;;;;;5072248;28;20021;-45
2022/02/20 02:50:02;;;;;;;0.73;0.38;;;;;;;;;;5073145;28;20024;-46
2022/02/20 02:52:28;;;;;;;1.55;0.55;;;;;;;;;;5072972;28;20078;-45
2022/02/20 02:54:54;;;;;;;1.40;0.70;;;;;;;;;;5072464;28;20020;-45
2022/02/20 02:57:20;;;;;;;1.63;0.68;;;;;;;;;;5072860;28;20115;-45
2022/02/20 02:59:46;;;;;;;2.90;0.77;;;;;;;;;;5071848;28;20115;-45
2022/02/20 03:02:12;;;;;;;1.25;0.43;;;;;;;;;;5072671;28;20020;-46
2022/02/20 03:04:38;;;;;;;1.20;0.70;;;;;;;;;;5072287;28;20020;-45
2022/02/20 03:07:04;;;;;;;1.85;0.52;;;;;;;;;;5072772;28;20023;-46
2022/02/20 03:09:30;;;;;;;1.98;0.70;;;;;;;;;;5072695;28;20036;-45
2022/02/20 03:11:56;;;;;;;2.60;0.70;;;;;;;;;;5071967;28;20481;-45
2022/02/20 03:14:23;;;;;;;3.08;0.90;;;;;;;;;;5072326;28;20032;-45
2022/02/20 03:16:49;;;;;;;1.42;0.40;;;;;;;;;;5071938;28;20016;-48
2022/02/20 03:19:15;;;;;;;1.85;0.68;;;;;;;;;;5072496;28;20163;-48
2022/02/20 03:21:41;;;;;;;1.23;0.65;;;;;;;;;;5072022;28;20060;-46
2022/02/20 03:24:07;;;;;;;3.20;1.10;;;;;;;;;;5072383;28;20032;-47
2022/02/20 03:26:33;;;;;;;1.15;0.57;;;;;;;;;;5071443;28;20048;-53
2022/02/20 03:29:00;;;;;;;2.28;1.10;;;;;;;;;;5072608;28;20046;-46
2022/02/20 03:31:25;;;;;;;2.22;0.50;;;;;;;;;;5072229;28;20028;-47
2022/02/20 03:33:51;;;;;;;1.63;0.50;;;;;;;;;;5071714;28;20415;-47
2022/02/20 03:36:18;;;;;;;0.93;0.60;;;;;;;;;;5072437;28;20028;-45
2022/02/20 03:38:44;;;;;;;1.52;0.57;;;;;;;;;;5071238;28;20090;-47
2022/02/20 03:41:10;;;;;;;1.13;0.40;;;;;;;;;;5072366;28;20028;-45
2022/02/20 03:43:36;;;;;;;0.93;0.70;;;;;;;;;;5062082;28;20087;-45
2022/02/20 03:46:02;;;;;;;1.80;0.70;;;;;;;;;;5052095;28;20070;-47
2022/02/20 03:48:28;;;;;;;1.33;0.80;;;;;;;;;;5052042;28;20116;-48
2022/02/20 03:50:54;;;;;;;1.15;0.57;;;;;;;;;;5051677;28;20256;-48
2022/02/20 03:53:20;;;;;;;2.38;0.80;;;;;;;;;;5052280;28;20044;-48
2022/02/20 03:55:46;;;;;;;2.42;0.70;;;;;;;;;;5051426;28;20393;-45
2022/02/20 03:58:12;;;;;;;0.70;0.63;;;;;;;;;;5051853;28;20029;-48
2022/02/20 04:00:38;;;;;;;0.90;0.60;;;;;;;;;;5051610;28;20540;-50
2022/02/20 04:03:04;;;;;;;1.25;0.65;;;;;;;;;;5052019;28;20030;-47
2022/02/20 04:05:30;;;;;;;0.45;0.30;;;;;;;;;;5051673;28;20028;-46
2022/02/20 04:07:56;;;;;;;2.10;0.73;;;;;;;;;;5051380;28;20032;-48
2022/02/20 04:10:22;;;;;;;1.83;0.50;;;;;;;;;;5051848;28;20029;-46
2022/02/20 04:12:49;;;;;;;1.23;0.65;;;;;;;;;;5051336;28;20021;-49
2022/02/20 04:15:16;;;;;;;2.72;0.50;;;;;;;;;;5051836;28;20017;-47
2022/02/20 04:17:46;;;;;;;1.98;0.50;;;;;;;;;;5051175;28;20037;-46
2022/02/20 04:20:15;;;;;;;1.33;0.43;;;;;;;;;;5051683;28;20029;-45
2022/02/20 04:22:41;;;;;;;0.90;0.52;;;;;;;;;;5051132;28;20029;-45
2022/02/20 04:25:08;;;;;;;0.52;0.50;;;;;;;;;;5051831;28;20017;-45
2022/02/20 04:27:34;;;;;;;1.10;0.63;;;;;;;;;;5051656;28;20462;-49
2022/02/20 04:30:00;;;;;;;2.80;0.82;;;;;;;;;;5051099;28;20494;-45
2022/02/20 04:32:26;;;;;;;1.00;0.80;;;;;;;;;;5051634;28;20029;-46
2022/02/20 04:34:52;;;;;;;2.05;0.63;;;;;;;;;;5050929;28;20018;-45
2022/02/20 04:37:18;;;;;;;1.48;0.60;;;;;;;;;;5053281;28;20140;-45
2022/02/20 04:39:44;;;;;;;1.15;0.57;;;;;;;;;;5054467;28;20029;-45
2022/02/20 04:42:10;;;;;;;1.20;0.52;;;;;;;;;;5055097;28;20413;-46
2022/02/20 04:44:36;;;;;;;1.85;0.65;;;;;;;;;;5072556;28;20021;-54
2022/02/20 04:47:02;;;;;;;1.52;0.60;;;;;;;;;;5075409;28;20158;-45
2022/02/20 04:49:28;;;;;;;1.42;0.73;;;;;;;;;;5075209;28;20378;-47
2022/02/20 04:51:55;;;;;;;2.15;0.40;;;;;;;;;;5074495;28;20021;-45
2022/02/20 04:54:21;;;;;;;1.52;0.60;;;;;;;;;;5075227;28;20031;-45
2022/02/20 04:56:47;;;;;;;1.10;0.68;;;;;;;;;;5074400;28;20032;-46
2022/02/20 04:59:13;;;;;;;0.70;0.45;;;;;;;;;;5074806;28;20037;-47
2022/02/20 05:01:40;;;;;;;1.67;0.77;;;;;;;;;;5074621;28;20025;-45
2022/02/20 05:04:07;;;;;;;1.33;0.57;;;;;;;;;;5075051;28;20020;-46
2022/02/20 05:06:33;;;;;;;0.63;0.50;;;;;;;;;;5074778;28;20479;-46
2022/02/20 05:08:59;;;;;;;0.95;0.38;;;;;;;;;;5074350;28;20105;-46
2022/02/20 05:11:27;;;;;;;0.57;0.50;;;;;;;;;;5074498;28;20048;-46
2022/02/20 05:13:54;;;;;;;0.40;0.30;;;;;;;;;;5073882;28;20020;-47
2022/02/20 05:16:21;;;;;;;1.30;0.68;;;;;;;;;;5074408;28;20035;-46
2022/02/20 05:18:47;;;;;;;1.48;0.30;;;;;;;;;;5073063;28;20032;-46
2022/02/20 05:21:13;;;;;;;0.90;0.32;;;;;;;;;;5074339;28;20154;-45
2022/02/20 05:23:39;;;;;;;0.80;0.30;;;;;;;;;;5073863;28;20017;-52
2022/02/20 05:26:05;;;;;;;0.68;0.50;;;;;;;;;;5073933;28;20024;-48
2022/02/20 05:28:31;;;;;;;0.82;0.38;;;;;;;;;;5074433;28;20040;-45
2022/02/20 05:30:57;;;;;;;0.45;0.35;;;;;;;;;;5073113;28;20461;-45
2022/02/20 05:33:23;;;;;;;1.08;0.40;;;;;;;;;;5074102;28;20842;-45
2022/02/20 05:35:49;;;;;;;1.40;0.85;;;;;;;;;;5073335;28;20021;-45
2022/02/20 05:38:16;;;;;;;0.90;0.40;;;;;;;;;;5073639;28;20442;-46
2022/02/20 05:40:42;;;;;;;0.88;0.30;;;;;;;;;;5073399;28;20119;-54
2022/02/20 05:43:09;;;;;;;0.82;0.30;;;;;;;;;;5067923;28;20046;-46
2022/02/20 05:45:35;;;;;;;1.30;0.50;;;;;;;;;;5053809;28;20025;-46
2022/02/20 05:48:03;;;;;;;1.55;0.52;;;;;;;;;;5052389;28;20638;-47
2022/02/20 05:50:29;;;;;;;0.45;0.45;;;;;;;;;;5053564;28;20071;-50
2022/02/20 05:52:55;;;;;;;0.40;0.30;;;;;;;;;;5053119;28;20108;-47
2022/02/20 05:55:21;;;;;;;2.05;0.90;;;;;;;;;;5054032;28;20112;-47
2022/02/20 05:57:49;;;;;;;1.08;0.63;;;;;;;;;;5052914;28;20158;-48
2022/02/20 06:00:16;;;;;;;1.48;0.45;;;;;;;;;;5053649;28;20028;-48
2022/02/20 06:02:42;;;;;;;0.70;0.43;;;;;;;;;;5053218;28;20424;-54
2022/02/20 06:05:09;;;;;;;1.33;0.57;;;;;;;;;;5053232;28;20037;-47
2022/02/20 06:07:35;;;;;;;0.70;0.40;;;;;;;;;;5070566;28;20048;-45
2022/02/20 06:10:02;;;;;;;0.50;0.32;;;;;;;;;;5060906;28;20024;-45
2022/02/20 06:12:28;;;;;;;0.77;0.52;;;;;;;;;;5062654;28;20033;-48
2022/02/20 06:14:54;;;;;;;0.95;0.68;;;;;;;;;;5060147;28;20020;-46
2022/02/20 06:17:20;;;;;;;1.65;0.60;;;;;;;;;;5062337;28;20507;-47
2022/02/20 06:19:46;;;;;;;2.30;0.63;;;;;;;;;;5061395;28;20029;-48
2022/02/20 06:22:12;;;;;;;0.85;0.40;;;;;;;;;;5060795;28;20028;-46
2022/02/20 06:24:38;;;;;;;2.13;0.95;;;;;;;;;;5062696;28;20017;-47
2022/02/20 06:27:05;;;;;;;1.48;0.68;;;;;;;;;;5061475;28;20021;-49
2022/02/20 06:29:31;;;;;;;0.68;0.40;;;;;;;;;;5060503;28;20087;-48
2022/02/20 06:31:57;;;;;;;1.20;0.40;;;;;;;;;;5060214;28;20155;-44
2022/02/20 06:34:23;;;;;;;1.33;0.50;;;;;;;;;;5061649;28;20016;-54
2022/02/20 06:36:49;;;;;;;0.80;0.40;;;;;;;;;;5061613;28;20036;-47
2022/02/20 06:39:15;;;;;;;4.30;0.40;;;;;;;;;;5060655;28;20067;-45
2022/02/20 06:41:41;;;;;;;2.72;0.47;;;;;;;;;;5061514;28;20022;-53
2022/02/20 06:44:07;;;;;;;1.52;0.60;;;;;;;;;;5059937;28;20012;-45
2022/02/20 06:46:34;;;;;;;1.17;0.60;;;;;;;;;;5062433;28;20052;-44
2022/02/20 06:49:00;;;;;;;0.85;0.35;;;;;;;;;;5065432;28;20028;-51
2022/02/20 06:51:28;;;;;;;2.05;0.55;;;;;;;;;;5068718;28;20047;-45
2022/02/20 06:53:54;;;;;;;1.88;0.52;;;;;;;;;;5060898;28;20051;-45
2022/02/20 06:56:20;;;;;;;0.93;0.30;;;;;;;;;;5063035;28;20482;-45
2022/02/20 06:58:46;;;;;;;0.60;0.32;;;;;;;;;;5059849;28;20036;-46
2022/02/20 07:01:12;;;;;;;0.30;0.30;;;;;;;;;;5062443;28;20038;-46
2022/02/20 07:03:38;;;;;;;1.83;0.70;;;;;;;;;;5062782;28;20082;-45
2022/02/20 07:06:04;;;;;;;0.70;0.40;;;;;;;;;;5060838;28;20032;-45
2022/02/20 07:08:31;;;;;;;0.30;0.20;;;;;;;;;;5062606;28;20024;-46
2022/02/20 07:10:57;;;;;;;4.20;0.82;;;;;;;;;;5060851;28;20056;-45
2022/02/20 07:13:23;;;;;;;0.30;0.30;;;;;;;;;;5060756;28;20016;-46
2022/02/20 07:15:49;;;;;;;2.33;0.65;;;;;;;;;;5059215;28;20021;-46
2022/02/20 07:18:15;;;;;;;1.38;0.40;;;;;;;;;;5061779;28;20091;-45
2022/02/20 07:20:44;;;;;;;1.25;0.30;;;;;;;;;;5060656;28;20477;-52
2022/02/20 07:23:11;;;;;;;1.17;0.40;;;;;;;;;;5059675;28;20529;-45
2022/02/20 07:25:37;;;;;;;2.05;0.68;;;;;;;;;;5061969;28;20397;-46
2022/02/20 07:28:03;;;;;;;1.05;0.43;;;;;;;;;;5061055;28;20378;-45
2022/02/20 07:30:29;;;;;;;2.20;0.40;;;;;;;;;;5060462;28;20052;-45
2022/02/20 07:32:56;;;;;;;2.25;0.40;;;;;;;;;;5061395;28;20048;-46
2022/02/20 07:35:22;;;;;;;2.33;0.68;;;;;;;;;;5058818;28;20436;-45
2022/02/20 07:37:48;;;;;;;3.17;0.75;;;;;;;;;;5058379;28;20055;-47
2022/02/20 07:40:16;;;;;;;4.03;1.10;;;;;;;;;;5061593;28;20024;-46
2022/02/20 07:42:43;;;;;;;3.80;0.50;;;;;;;;;;5058085;28;20128;-51
2022/02/20 07:45:09;;;;;;;4.80;0.90;;;;;;;;;;5059187;28;20052;-51
2022/02/20 07:47:51;;;;;;;1.17;0.50;;;;;;;;;;5036142;28;20040;-45
2022/02/20 07:50:17;;;;;;;3.92;1.80;;;;;;;;;;5034409;28;20521;-46
2022/02/20 07:52:42;;;;;;;3.50;0.88;;;;;;;;;;5051096;28;20033;-52
2022/02/20 07:55:09;;;;;;;9.18;1.35;;;;;;;;;;5051714;28;20036;-45
2022/02/20 07:57:35;;;;;;;3.65;0.68;;;;;;;;;;5033806;28;20029;-45
2022/02/20 08:00:03;;;;;;;1.73;0.60;;;;;;;;;;5050700;28;20612;-47
2022/02/20 08:02:29;;;;;;;5.50;0.80;;;;;;;;;;5051671;28;20127;-50
2022/02/20 08:04:55;;;;;;;4.93;0.85;;;;;;;;;;5050948;28;20127;-47
2022/02/20 08:07:21;;;;;;;3.92;0.70;;;;;;;;;;5051517;28;20024;-46
2022/02/20 08:09:47;;;;;;;8.90;1.10;;;;;;;;;;5050706;28;20025;-50
2022/02/20 08:12:13;;;;;;;5.05;0.70;;;;;;;;;;5053550;28;20029;-47
2022/02/20 08:14:40;;;;;;;7.60;1.17;;;;;;;;;;5056165;28;20025;-46
2022/02/20 08:17:06;;;;;;;5.28;0.95;;;;;;;;;;5063319;28;20035;-51
2022/02/20 08:19:31;;;;;;;4.95;0.63;;;;;;;;;;5076531;28;20381;-46
2022/02/20 08:21:57;;;;;;;2.95;0.82;;;;;;;;;;5074628;28;20021;-49
2022/02/20 08:24:23;;;;;;;4.03;0.70;;;;;;;;;;5075482;28;20462;-45
2022/02/20 08:26:49;;;;;;;5.50;1.52;;;;;;;;;;5074869;28;20151;-48
2022/02/20 08:29:21;;;;;;;3.95;1.25;;;;;;;;;;5075057;28;20024;-46
2022/02/20 08:31:47;;;;;;;8.82;0.65;;;;;;;;;;5074797;28;20035;-45
2022/02/20 08:34:13;;;;;;;3.63;0.70;;;;;;;;;;5075293;28;20067;-49
2022/02/20 08:36:39;;;;;;;5.47;1.00;;;;;;;;;;5075051;28;20418;-46
2022/02/20 08:39:05;;;;;;;3.17;0.57;;;;;;;;;;5056146;28;20040;-46
2022/02/20 08:41:31;;;;;;;2.88;0.70;;;;;;;;;;5075555;28;20035;-50
2022/02/20 08:43:57;;;;;;;5.05;1.10;;;;;;;;;;5063148;28;20025;-45
2022/02/20 08:46:23;;;;;;;5.43;1.02;;;;;;;;;;5075043;28;20028;-46
2022/02/20 08:48:49;;;;;;;3.25;0.75;;;;;;;;;;5074755;28;20028;-45
2022/02/20 08:51:16;;;;;;;0.65;0.60;;;;;;;;;;5075477;28;20025;-45
2022/02/20 08:53:43;;;;;;;2.78;0.80;;;;;;;;;;5074842;28;20070;-47
2022/02/20 08:56:09;;;;;;;1.55;0.52;;;;;;;;;;5075527;28;20082;-45
2022/02/20 08:58:36;;;;;;;1.00;0.47;;;;;;;;;;5074987;28;20013;-45
2022/02/20 09:01:05;;;;;;;7.43;1.20;;;;;;;;;;5075135;28;20348;-46
2022/02/20 09:03:31;;;;;;;1.67;0.50;;;;;;;;;;5074902;28;20026;-45
2022/02/20 09:05:57;;;;;;;2.88;0.70;;;;;;;;;;5074776;28;20107;-45
2022/02/20 09:08:23;;;;;;;1.13;0.50;;;;;;;;;;5075228;28;20017;-45
2022/02/20 09:10:49;;;;;;;3.42;0.55;;;;;;;;;;5074685;28;20022;-45
2022/02/20 09:13:15;;;;;;;3.13;0.50;;;;;;;;;;5075003;28;20028;-45
2022/02/20 09:15:42;;;;;;;6.10;1.05;;;;;;;;;;5074965;28;20396;-45
2022/02/20 09:18:08;;;;;;;1.75;0.50;;;;;;;;;;5075053;28;20024;-45
2022/02/20 09:20:34;;;;;;;2.45;0.50;;;;;;;;;;5075058;28;20335;-45
2022/02/20 09:23:00;;;;;;;2.38;0.60;;;;;;;;;;5073045;28;20056;-45
2022/02/20 09:25:26;;;;;;;4.13;0.75;;;;;;;;;;5074937;28;20043;-46
2022/02/20 09:27:52;;;;;;;3.65;1.05;;;;;;;;;;5074310;28;20031;-46
2022/02/20 09:30:18;;;;;;;2.80;0.50;;;;;;;;;;5074829;28;20043;-46
2022/02/20 09:32:45;;;;;;;1.90;0.40;;;;;;;;;;5074269;28;20463;-46
2022/02/20 09:35:11;;;;;;;1.17;0.45;;;;;;;;;;5074678;28;20013;-46
2022/02/20 09:37:37;;;;;;;2.80;0.55;;;;;;;;;;5074341;28;20036;-46
2022/02/20 09:40:04;;;;;;;2.50;0.98;;;;;;;;;;5073573;28;20756;-45
2022/02/20 09:42:30;;;;;;;0.38;0.30;;;;;;;;;;5074641;28;20077;-46
2022/02/20 09:44:56;;;;;;;1.13;0.60;;;;;;;;;;5073415;28;20016;-45
2022/02/20 09:47:27;;;;;;;1.30;0.50;;;;;;;;;;5074537;28;20019;-46
2022/02/20 09:49:58;;;;;;;0.73;0.40;;;;;;;;;;5073881;28;20081;-45
2022/02/20 09:52:24;;;;;;;1.30;0.50;;;;;;;;;;5074516;28;20064;-45
2022/02/20 09:54:50;;;;;;;0.70;0.40;;;;;;;;;;5073671;28;20060;-46
2022/02/20 09:57:16;;;;;;;1.13;0.40;;;;;;;;;;5074239;28;20017;-45
2022/02/20 09:59:42;;;;;;;1.75;0.40;;;;;;;;;;5073915;28;20086;-45
2022/02/20 10:02:09;;;;;;;1.65;0.60;;;;;;;;;;5073744;28;20024;-45
2022/02/20 10:04:54;;;;;;;1.33;0.40;;;;;;;;;;5074376;28;20044;-45
2022/02/20 10:07:33;;;;;;;1.58;0.40;;;;;;;;;;5074163;28;20074;-45
2022/02/20 10:10:00;;;;;;;1.63;0.60;;;;;;;;;;5073248;28;20370;-48
2022/02/20 10:12:27;;;;;;;1.85;0.60;;;;;;;;;;5073894;28;20108;-48
2022/02/20 10:14:53;;;;;;;1.48;0.55;;;;;;;;;;5073117;28;20032;-52
2022/02/20 10:17:21;;;;;;;1.55;0.43;;;;;;;;;;5073895;28;20033;-46
2022/02/20 10:20:13;;;;;;;0.40;0.30;;;;;;;;;;5072820;28;20024;-45
2022/02/20 10:22:39;;;;;;;2.33;0.47;;;;;;;;;;5070042;28;20190;-45
2022/02/20 10:25:13;;;;;;;2.83;0.65;;;;;;;;;;5074467;28;20036;-45
2022/02/20 10:27:48;;;;;;;2.42;0.82;;;;;;;;;;5073854;28;20020;-46
2022/02/20 10:30:22;;;;;;;0.75;0.45;;;;;;;;;;5073745;28;20112;-46
2022/02/20 10:33:10;;;;;;;1.08;0.30;;;;;;;;;;5073093;28;20024;-46
2022/02/20 10:35:37;;;;;;;1.05;0.47;;;;;;;;;;5073371;28;20023;-46
2022/02/20 10:38:22;;;;;;;1.05;0.60;;;;;;;;;;5074904;28;20048;-47
2022/02/20 10:40:52;;;;;;;1.25;0.47;;;;;;;;;;5072752;28;20369;-46
2022/02/20 10:43:24;;;;;;;0.20;0.20;;;;;;;;;;5073446;28;20078;-46
2022/02/20 10:45:50;;;;;;;;;;;;;;;;;;5072873;28;20020;-46
2022/02/20 10:48:17;;;;;;;0.85;0.40;;;;;;;;;;5073339;28;19928;-46
2022/02/20 10:50:44;;;;;;;0.57;0.30;;;;;;;;;;5073232;28;20118;-47
2022/02/20 10:53:10;;;;;;;0.40;0.30;;;;;;;;;;5072588;28;20070;-46
2022/02/20 10:55:37;;;;;;;0.50;0.30;;;;;;;;;;5073059;28;20095;-46
2022/02/20 10:58:11;;;;;;;0.30;0.20;;;;;;;;;;5072773;28;20044;-46
2022/02/20 11:00:45;;;;;;;2.90;0.70;;;;;;;;;;5072858;28;20024;-46
2022/02/20 11:03:12;;;;;;;0.65;0.47;;;;;;;;;;5072439;28;20021;-51
2022/02/20 11:05:39;;;;;;;1.13;0.50;;;;;;;;;;5072839;28;20027;-47
2022/02/20 11:08:06;;;;;;;0.32;0.32;;;;;;;;;;5072370;28;20028;-48
2022/02/20 11:10:32;;;;;;;0.60;0.30;;;;;;;;;;5072747;28;20031;-46
2022/02/20 11:12:58;;;;;;;0.50;0.30;;;;;;;;;;5072668;28;20039;-50
2022/02/20 11:15:25;;;;;;;0.57;0.55;;;;;;;;;;5072598;28;20021;-47
2022/02/20 11:18:01;;;;;;;0.28;0.28;;;;;;;;;;5072164;28;20024;-47
2022/02/20 11:20:31;;;;;;;0.77;0.55;;;;;;;;;;5072879;28;20366;-46
2022/02/20 11:23:00;;;;;;;1.17;0.40;;;;;;;;;;5072275;28;20020;-46
2022/02/20 11:25:26;;;;;;;1.17;0.52;;;;;;;;;;5072508;28;20404;-49
2022/02/20 11:27:53;;;;;;;1.63;0.60;;;;;;;;;;5072055;28;20050;-47
2022/02/20 11:30:19;;;;;;;0.50;0.30;;;;;;;;;;5072803;28;20461;-45
2022/02/20 11:32:46;;;;;;;0.70;0.30;;;;;;;;;;5072660;28;20016;-48
2022/02/20 11:35:13;;;;;;;0.52;0.38;;;;;;;;;;5071921;28;20066;-46
2022/02/20 11:37:56;;;;;;;0.52;0.30;;;;;;;;;;5072507;28;20048;-47
2022/02/20 11:40:22;;;;;;;3.50;0.32;;;;;;;;;;5072334;28;20024;-47
2022/02/20 11:43:01;;;;;;;0.68;0.40;;;;;;;;;;5071501;28;20461;-53
2022/02/20 11:45:37;;;;;;;0.60;0.20;;;;;;;;;;5072161;28;20070;-46
2022/02/20 11:48:11;;;;;;;0.57;0.35;;;;;;;;;;5071226;28;20462;-46
2022/02/20 11:50:43;;;;;;;0.95;0.40;;;;;;;;;;5072128;28;20488;-46
2022/02/20 11:53:10;;;;;;;1.10;0.25;;;;;;;;;;5071906;28;20052;-46
2022/02/20 11:55:40;;;;;;;0.20;0.20;;;;;;;;;;5072384;28;20025;-46
2022/02/20 11:58:21;;;;;;;0.40;0.30;;;;;;;;;;5071609;28;20027;-46
2022/02/20 12:01:03;;;;;;;1.30;0.40;;;;;;;;;;5072110;28;20028;-46
2022/02/20 12:03:30;;;;;;;0.20;0.20;;;;;;;;;;5072478;28;20021;-46
2022/02/20 12:06:08;;;;;;;0.73;0.30;;;;;;;;;;5071589;28;20020;-46
2022/02/20 12:08:36;;;;;;;0.30;0.30;;;;;;;;;;5072114;28;20457;-47
2022/02/20 12:11:34;;;;;;;0.20;0.20;;;;;;;;;;5071560;28;20028;-51
2022/02/20 12:14:01;;;;;;;0.75;0.32;;;;;;;;;;5026762;28;20107;-49
2022/02/20 12:16:39;;;;;;;1.15;0.40;;;;;;;;;;5072043;28;20023;-51
2022/02/20 12:19:06;;;;;;;0.63;0.40;;;;;;;;;;5071906;28;20408;-47
2022/02/20 12:21:32;;;;;;;0.43;0.30;;;;;;;;;;5072009;28;20020;-46
2022/02/20 12:24:13;;;;;;;0.30;0.30;;;;;;;;;;5071489;28;20398;-46
2022/02/20 12:26:47;;;;;;;0.55;0.35;;;;;;;;;;5072085;28;20408;-47
2022/02/20 12:29:15;;;;;;;0.30;0.30;;;;;;;;;;5071614;28;20403;-50
2022/02/20 12:31:59;;;;;;;0.75;0.45;;;;;;;;;;5071900;28;20024;-47
2022/02/20 12:34:44;;;;;;;0.38;0.25;;;;;;;;;;5072044;28;20025;-48
2022/02/20 12:37:14;;;;;;;0.20;0.20;;;;;;;;;;5071076;28;20124;-48
2022/02/20 12:39:40;;;;;;;2.00;0.65;;;;;;;;;;5072015;28;20017;-46
2022/02/20 12:42:07;;;;;;;0.77;0.38;;;;;;;;;;5071256;28;20032;-47
2022/02/20 12:44:33;;;;;;;0.28;0.28;;;;;;;;;;5063901;28;20108;-50
2022/02/20 12:46:59;;;;;;;0.73;0.30;;;;;;;;;;5069623;28;20019;-48
2022/02/20 12:49:25;;;;;;;0.90;0.40;;;;;;;;;;5072255;28;20036;-46
2022/02/20 12:52:08;;;;;;;0.43;0.20;;;;;;;;;;5071276;28;20051;-46
2022/02/20 12:54:34;;;;;;;1.05;0.55;;;;;;;;;;5071816;28;20024;-47
2022/02/20 12:57:07;;;;;;;0.75;0.60;;;;;;;;;;5071081;28;20483;-46
2022/02/20 12:59:33;;;;;;;0.75;0.60;;;;;;;;;;5075280;28;20035;-47
2022/02/20 13:02:06;;;;;;;0.73;0.52;;;;;;;;;;5074636;28;20032;-51
2022/02/20 13:04:32;;;;;;;0.52;0.50;;;;;;;;;;5075428;28;20103;-49
2022/02/20 13:07:00;;;;;;;1.10;0.60;;;;;;;;;;5074628;28;20377;-48
2022/02/20 13:09:26;;;;;;;1.95;0.88;;;;;;;;;;5075323;28;20028;-46
2022/02/20 13:11:52;;;;;;;1.05;0.60;;;;;;;;;;5074599;28;20016;-46
2022/02/20 13:14:19;;;;;;;0.65;0.57;;;;;;;;;;5074842;28;20326;-46
2022/02/20 13:16:55;;;;;;;0.80;0.70;;;;;;;;;;5075117;28;20362;-48
2022/02/20 13:19:34;;;;;;;0.88;0.73;;;;;;;;;;5074925;28;20517;-50
2022/02/20 13:22:09;;;;;;;2.10;1.40;;;;;;;;;;5074373;28;20120;-50
2022/02/20 13:24:35;;;;;;;1.10;0.70;;;;;;;;;;5075209;28;20037;-50
2022/02/20 13:27:01;;;;;;;1.10;0.90;;;;;;;;;;5074320;28;20090;-49
2022/02/20 13:29:27;;;;;;;1.45;0.70;;;;;;;;;;5075070;28;20389;-47
2022/02/20 13:31:54;;;;;;;1.33;0.68;;;;;;;;;;5074382;28;20033;-47
2022/02/20 13:34:20;;;;;;;0.80;0.60;;;;;;;;;;5074677;28;20116;-46
2022/02/20 13:36:46;;;;;;;0.90;0.40;;;;;;;;;;5074850;28;20052;-47
2022/02/20 13:39:13;;;;;;;0.68;0.68;;;;;;;;;;5074182;28;20103;-48
2022/02/20 13:41:41;;;;;;;0.88;0.60;;;;;;;;;;5074757;28;20039;-46
2022/02/20 13:44:20;;;;;;;0.80;0.60;;;;;;;;;;5072792;28;20562;-50
2022/02/20 13:46:48;;;;;;;0.52;0.45;;;;;;;;;;5073770;28;20024;-47
2022/02/20 13:49:22;;;;;;;1.00;0.60;;;;;;;;;;5073819;28;20107;-47
2022/02/20 13:51:48;;;;;;;0.98;0.55;;;;;;;;;;5074578;28;20495;-46
2022/02/20 13:54:18;;;;;;;0.90;0.60;;;;;;;;;;5073867;28;20025;-50
2022/02/20 13:56:49;;;;;;;0.90;0.50;;;;;;;;;;5074528;28;20033;-47
2022/02/20 13:59:23;;;;;;;0.70;0.70;;;;;;;;;;5073673;28;20028;-46
2022/02/20 14:01:50;;;;;;;0.82;0.40;;;;;;;;;;5074036;28;20028;-45
2022/02/20 14:04:24;;;;;;;0.90;0.40;;;;;;;;;;5073360;28;20446;-46
2022/02/20 14:06:52;;;;;;;0.90;0.50;;;;;;;;;;5074276;28;20051;-45
2022/02/20 14:09:18;;;;;;;0.85;0.45;;;;;;;;;;5072637;28;20012;-51
2022/02/20 14:11:44;;;;;;;0.90;0.80;;;;;;;;;;5074294;28;20074;-46
2022/02/20 14:14:16;;;;;;;1.13;0.75;;;;;;;;;;5073163;28;20364;-45
2022/02/20 14:16:54;;;;;;;0.90;0.40;;;;;;;;;;5073851;28;20028;-45
2022/02/20 14:19:20;;;;;;;3.85;0.57;;;;;;;;;;5073854;28;20081;-47
2022/02/20 14:21:53;;;;;;;0.75;0.40;;;;;;;;;;5073655;28;20525;-46
2022/02/20 14:24:19;;;;;;;0.80;0.50;;;;;;;;;;5073816;28;20020;-46
2022/02/20 14:26:45;;;;;;;0.52;0.38;;;;;;;;;;5073795;28;20036;-50
2022/02/20 14:29:12;;;;;;;1.25;0.70;;;;;;;;;;5073370;28;20027;-48
2022/02/20 14:31:38;;;;;;;0.75;0.60;;;;;;;;;;5073615;28;20028;-50
2022/02/20 14:34:04;;;;;;;0.80;0.43;;;;;;;;;;5073039;28;20035;-47
2022/02/20 14:36:40;;;;;;;0.80;0.50;;;;;;;;;;5073662;28;20443;-46
2022/02/20 14:39:07;;;;;;;0.60;0.30;;;;;;;;;;5072722;28;20048;-49
2022/02/20 14:41:33;;;;;;;1.15;0.50;;;;;;;;;;5073247;28;20457;-46
2022/02/20 14:44:00;;;;;;;0.50;0.40;;;;;;;;;;5072292;28;20025;-46
2022/02/20 14:46:27;;;;;;;1.27;0.43;;;;;;;;;;5073339;28;20399;-45